sensor_id;sensor_type;location;lat;lon;timestamp;pressure;altitude;pressure_sealevel;temperature;humidity
55068;BME280;40965;52.368;9.712;2022-10-16T00:01:24;100422.66;;;13.02;85.99
55068;BME280;40965;52.368;9.712;2022-10-16T00:03:52;100426.91;;;13.07;85.34
55068;BME280;40965;52.368;9.712;2022-10-16T00:06:20;100428.66;;;13.07;85.74
55068;BME280;40965;52.368;9.712;2022-10-16T00:08:48;100428.47;;;13.15;84.89
55068;BME280;40965;52.368;9.712;2022-10-16T00:11:27;100439.81;;;13.18;84.94
55068;BME280;40965;52.368;9.712;2022-10-16T00:13:58;100431.03;;;13.19;85.00
55068;BME280;40965;52.368;9.712;2022-10-16T00:16:27;100437.22;;;13.15;85.14
55068;BME280;40965;52.368;9.712;2022-10-16T00:18:55;100435.59;;;13.10;85.46
55068;BME280;40965;52.368;9.712;2022-10-16T00:21:25;100440.16;;;13.03;85.87
55068;BME280;40965;52.368;9.712;2022-10-16T00:23:59;100442.06;;;12.96;86.37
55068;BME280;40965;52.368;9.712;2022-10-16T00:26:30;100443.78;;;12.97;85.49
55068;BME280;40965;52.368;9.712;2022-10-16T00:28:58;100443.72;;;13.00;85.22
55068;BME280;40965;52.368;9.712;2022-10-16T00:31:25;100451.69;;;12.96;85.11
55068;BME280;40965;52.368;9.712;2022-10-16T00:33:52;100449.09;;;12.94;85.74
55068;BME280;40965;52.368;9.712;2022-10-16T00:36:21;100449.16;;;12.91;85.60
55068;BME280;40965;52.368;9.712;2022-10-16T00:38:52;100452.72;;;12.88;85.60
55068;BME280;40965;52.368;9.712;2022-10-16T00:41:20;100459.75;;;12.86;86.07
55068;BME280;40965;52.368;9.712;2022-10-16T00:44:40;100457.28;;;12.80;86.66
55068;BME280;40965;52.368;9.712;2022-10-16T00:47:00;100452.16;;;12.74;86.72
55068;BME280;40965;52.368;9.712;2022-10-16T00:49:26;100460.00;;;12.76;86.75
55068;BME280;40965;52.368;9.712;2022-10-16T00:51:53;100453.91;;;12.75;86.79
55068;BME280;40965;52.368;9.712;2022-10-16T00:54:28;100460.78;;;12.81;87.35
55068;BME280;40965;52.368;9.712;2022-10-16T00:56:58;100461.56;;;12.84;87.56
55068;BME280;40965;52.368;9.712;2022-10-16T00:59:34;100453.69;;;12.84;87.82
55068;BME280;40965;52.368;9.712;2022-10-16T01:02:04;100459.84;;;12.83;88.32
55068;BME280;40965;52.368;9.712;2022-10-16T01:04:35;100463.34;;;12.82;87.92
55068;BME280;40965;52.368;9.712;2022-10-16T01:07:34;100453.81;;;12.78;89.55
55068;BME280;40965;52.368;9.712;2022-10-16T01:10:17;100457.38;;;12.76;90.20
55068;BME280;40965;52.368;9.712;2022-10-16T01:12:55;100451.19;;;12.78;90.96
55068;BME280;40965;52.368;9.712;2022-10-16T01:15:30;100467.66;;;12.86;91.75
55068;BME280;40965;52.368;9.712;2022-10-16T01:18:21;100453.53;;;12.90;92.88
55068;BME280;40965;52.368;9.712;2022-10-16T01:21:04;100452.69;;;12.90;93.28
55068;BME280;40965;52.368;9.712;2022-10-16T01:23:51;100452.69;;;12.90;93.89
55068;BME280;40965;52.368;9.712;2022-10-16T01:29:23;100469.72;;;12.70;95.81
55068;BME280;40965;52.368;9.712;2022-10-16T01:31:59;100481.34;;;12.58;96.71
55068;BME280;40965;52.368;9.712;2022-10-16T01:34:52;100471.84;;;12.53;99.11
55068;BME280;40965;52.368;9.712;2022-10-16T01:37:32;100477.03;;;12.56;99.47
55068;BME280;40965;52.368;9.712;2022-10-16T01:40:06;100475.25;;;12.56;100.00
55068;BME280;40965;52.368;9.712;2022-10-16T01:42:40;100478.63;;;12.65;100.00
55068;BME280;40965;52.368;9.712;2022-10-16T01:45:11;100481.94;;;12.73;100.00
55068;BME280;40965;52.368;9.712;2022-10-16T01:47:40;100480.00;;;12.81;100.00
55068;BME280;40965;52.368;9.712;2022-10-16T01:50:08;100478.22;;;12.83;100.00
55068;BME280;40965;52.368;9.712;2022-10-16T01:52:37;100481.72;;;12.84;100.00
55068;BME280;40965;52.368;9.712;2022-10-16T01:55:07;100472.91;;;12.86;100.00
55068;BME280;40965;52.368;9.712;2022-10-16T01:57:39;100481.63;;;12.88;100.00
55068;BME280;40965;52.368;9.712;2022-10-16T02:00:10;100484.34;;;12.84;100.00
55068;BME280;40965;52.368;9.712;2022-10-16T02:02:40;100477.38;;;12.83;100.00
55068;BME280;40965;52.368;9.712;2022-10-16T02:05:16;100476.56;;;12.79;100.00
55068;BME280;40965;52.368;9.712;2022-10-16T02:07:47;100480.03;;;12.80;100.00
55068;BME280;40965;52.368;9.712;2022-10-16T02:10:15;100476.59;;;12.78;100.00
55068;BME280;40965;52.368;9.712;2022-10-16T02:12:46;100475.72;;;12.77;100.00
55068;BME280;40965;52.368;9.712;2022-10-16T02:15:17;100479.31;;;12.73;100.00
55068;BME280;40965;52.368;9.712;2022-10-16T02:17:43;100486.31;;;12.74;100.00
55068;BME280;40965;52.368;9.712;2022-10-16T02:20:10;100487.03;;;12.81;100.00
55068;BME280;40965;52.368;9.712;2022-10-16T02:22:45;100487.81;;;12.86;100.00
55068;BME280;40965;52.368;9.712;2022-10-16T02:25:22;100497.44;;;12.87;100.00
55068;BME280;40965;52.368;9.712;2022-10-16T02:28:08;100490.31;;;12.90;100.00
55068;BME280;40965;52.368;9.712;2022-10-16T02:30:46;100492.16;;;12.87;100.00
55068;BME280;40965;52.368;9.712;2022-10-16T02:33:17;100507.00;;;12.89;100.00
55068;BME280;40965;52.368;9.712;2022-10-16T02:35:47;100499.25;;;12.83;99.97
55068;BME280;40965;52.368;9.712;2022-10-16T02:38:16;100500.09;;;12.84;99.69
55068;BME280;40965;52.368;9.712;2022-10-16T02:40:45;100493.09;;;12.84;99.81
55068;BME280;40965;52.368;9.712;2022-10-16T02:43:12;100481.78;;;12.81;100.00
55068;BME280;40965;52.368;9.712;2022-10-16T02:45:39;100485.34;;;12.78;100.00
55068;BME280;40965;52.368;9.712;2022-10-16T02:48:05;100487.16;;;12.74;100.00
55068;BME280;40965;52.368;9.712;2022-10-16T02:50:32;100498.69;;;12.67;100.00
55068;BME280;40965;52.368;9.712;2022-10-16T02:52:59;100499.75;;;12.58;100.00
55068;BME280;40965;52.368;9.712;2022-10-16T02:55:26;100504.22;;;12.53;100.00
55068;BME280;40965;52.368;9.712;2022-10-16T02:57:53;100500.03;;;12.43;100.00
55068;BME280;40965;52.368;9.712;2022-10-16T03:00:20;100502.81;;;12.35;100.00
55068;BME280;40965;52.368;9.712;2022-10-16T03:02:46;100506.38;;;12.31;100.00
55068;BME280;40965;52.368;9.712;2022-10-16T03:05:14;100503.91;;;12.23;100.00
55068;BME280;40965;52.368;9.712;2022-10-16T03:07:40;100495.31;;;12.15;100.00
55068;BME280;40965;52.368;9.712;2022-10-16T03:10:07;100501.50;;;12.10;100.00
55068;BME280;40965;52.368;9.712;2022-10-16T03:12:34;100499.03;;;12.02;100.00
55068;BME280;40965;52.368;9.712;2022-10-16T03:15:01;100498.22;;;11.97;100.00
55068;BME280;40965;52.368;9.712;2022-10-16T03:17:27;100501.81;;;11.91;100.00
55068;BME280;40965;52.368;9.712;2022-10-16T03:19:54;100501.00;;;11.86;100.00
55068;BME280;40965;52.368;9.712;2022-10-16T03:22:20;100509.78;;;11.83;100.00
55068;BME280;40965;52.368;9.712;2022-10-16T03:24:47;100509.00;;;11.78;100.00
55068;BME280;40965;52.368;9.712;2022-10-16T03:27:13;100505.47;;;11.81;100.00
55068;BME280;40965;52.368;9.712;2022-10-16T03:29:40;100498.41;;;11.84;100.00
55068;BME280;40965;52.368;9.712;2022-10-16T03:32:06;100494.88;;;11.87;100.00
55068;BME280;40965;52.368;9.712;2022-10-16T03:34:33;100498.34;;;11.89;100.00
55068;BME280;40965;52.368;9.712;2022-10-16T03:36:59;100490.50;;;11.87;100.00
55068;BME280;40965;52.368;9.712;2022-10-16T03:39:25;100492.25;;;11.87;100.00
55068;BME280;40965;52.368;9.712;2022-10-16T03:41:52;100495.75;;;11.89;100.00
55068;BME280;40965;52.368;9.712;2022-10-16T03:44:18;100499.19;;;11.91;100.00
55068;BME280;40965;52.368;9.712;2022-10-16T03:46:45;100493.88;;;11.94;100.00
55068;BME280;40965;52.368;9.712;2022-10-16T03:49:11;100487.75;;;11.97;100.00
55068;BME280;40965;52.368;9.712;2022-10-16T03:51:38;100499.09;;;11.99;100.00
55068;BME280;40965;52.368;9.712;2022-10-16T03:54:04;100496.41;;;12.02;100.00
55068;BME280;40965;52.368;9.712;2022-10-16T03:56:31;100499.94;;;11.99;100.00
55068;BME280;40965;52.368;9.712;2022-10-16T03:58:58;100498.19;;;12.00;100.00
55068;BME280;40965;52.368;9.712;2022-10-16T04:01:24;100497.22;;;12.05;100.00
55068;BME280;40965;52.368;9.712;2022-10-16T04:03:51;100505.13;;;12.04;100.00
55068;BME280;40965;52.368;9.712;2022-10-16T04:06:17;100499.13;;;11.97;100.00
55068;BME280;40965;52.368;9.712;2022-10-16T04:08:44;100497.38;;;11.95;100.00
55068;BME280;40965;52.368;9.712;2022-10-16T04:11:10;100507.94;;;11.90;100.00
55068;BME280;40965;52.368;9.712;2022-10-16T04:13:37;100514.09;;;11.87;100.00
55068;BME280;40965;52.368;9.712;2022-10-16T04:16:04;100521.16;;;11.85;100.00
55068;BME280;40965;52.368;9.712;2022-10-16T04:18:30;100526.38;;;11.85;100.00
55068;BME280;40965;52.368;9.712;2022-10-16T04:20:56;100531.59;;;11.87;100.00
55068;BME280;40965;52.368;9.712;2022-10-16T04:23:31;100527.25;;;11.86;100.00
55068;BME280;40965;52.368;9.712;2022-10-16T04:25:59;100528.09;;;11.88;100.00
55068;BME280;40965;52.368;9.712;2022-10-16T04:28:26;100532.44;;;11.90;100.00
55068;BME280;40965;52.368;9.712;2022-10-16T04:30:53;100522.75;;;11.92;100.00
55068;BME280;40965;52.368;9.712;2022-10-16T04:33:19;100528.84;;;11.95;100.00
55068;BME280;40965;52.368;9.712;2022-10-16T04:35:46;100543.72;;;11.97;100.00
55068;BME280;40965;52.368;9.712;2022-10-16T04:38:12;100548.13;;;11.92;100.00
55068;BME280;40965;52.368;9.712;2022-10-16T04:40:39;100539.41;;;11.91;100.00
55068;BME280;40965;52.368;9.712;2022-10-16T04:43:05;100535.06;;;11.90;100.00
55068;BME280;40965;52.368;9.712;2022-10-16T04:45:32;100541.22;;;11.88;100.00
55068;BME280;40965;52.368;9.712;2022-10-16T04:47:59;100538.63;;;11.86;100.00
55068;BME280;40965;52.368;9.712;2022-10-16T04:50:26;100534.16;;;11.90;100.00
55068;BME280;40965;52.368;9.712;2022-10-16T04:52:52;100533.28;;;11.91;100.00
55068;BME280;40965;52.368;9.712;2022-10-16T04:55:19;100546.41;;;11.91;100.00
55068;BME280;40965;52.368;9.712;2022-10-16T04:57:45;100538.63;;;11.86;100.00
55068;BME280;40965;52.368;9.712;2022-10-16T05:00:12;100543.00;;;11.84;100.00
55068;BME280;40965;52.368;9.712;2022-10-16T05:02:38;100547.38;;;11.85;100.00
55068;BME280;40965;52.368;9.712;2022-10-16T05:05:05;100549.94;;;11.88;100.00
55068;BME280;40965;52.368;9.712;2022-10-16T05:07:32;100555.13;;;11.93;100.00
55068;BME280;40965;52.368;9.712;2022-10-16T05:09:58;100558.63;;;11.92;100.00
55068;BME280;40965;52.368;9.712;2022-10-16T05:12:25;100563.91;;;11.90;100.00
55068;BME280;40965;52.368;9.712;2022-10-16T05:14:51;100561.28;;;11.90;100.00
55068;BME280;40965;52.368;9.712;2022-10-16T05:17:18;100567.47;;;11.85;100.00
55068;BME280;40965;52.368;9.712;2022-10-16T05:19:44;100568.38;;;11.82;100.00
55068;BME280;40965;52.368;9.712;2022-10-16T05:22:11;100559.72;;;11.79;100.00
55068;BME280;40965;52.368;9.712;2022-10-16T05:24:37;100571.13;;;11.76;100.00
55068;BME280;40965;52.368;9.712;2022-10-16T05:27:04;100568.59;;;11.70;100.00
55068;BME280;40965;52.368;9.712;2022-10-16T05:29:30;100577.34;;;11.69;100.00
55068;BME280;40965;52.368;9.712;2022-10-16T05:31:57;100585.22;;;11.67;100.00
55068;BME280;40965;52.368;9.712;2022-10-16T05:34:23;100601.72;;;11.74;100.00
55068;BME280;40965;52.368;9.712;2022-10-16T05:36:50;100587.66;;;11.80;100.00
55068;BME280;40965;52.368;9.712;2022-10-16T05:39:17;100580.66;;;11.82;100.00
55068;BME280;40965;52.368;9.712;2022-10-16T05:41:44;100589.38;;;11.82;100.00
55068;BME280;40965;52.368;9.712;2022-10-16T05:44:10;100594.66;;;11.79;100.00
55068;BME280;40965;52.368;9.712;2022-10-16T05:46:37;100595.53;;;11.80;100.00
55068;BME280;40965;52.368;9.712;2022-10-16T05:49:03;100577.03;;;11.87;100.00
55068;BME280;40965;52.368;9.712;2022-10-16T05:51:30;100572.63;;;11.91;100.00
55068;BME280;40965;52.368;9.712;2022-10-16T05:53:56;100595.38;;;11.90;100.00
55068;BME280;40965;52.368;9.712;2022-10-16T05:56:23;100582.25;;;11.90;100.00
55068;BME280;40965;52.368;9.712;2022-10-16T05:58:49;100586.66;;;11.88;100.00
55068;BME280;40965;52.368;9.712;2022-10-16T06:01:18;100597.13;;;11.90;100.00
55068;BME280;40965;52.368;9.712;2022-10-16T06:03:45;100595.50;;;11.83;100.00
55068;BME280;40965;52.368;9.712;2022-10-16T06:06:18;100586.78;;;11.81;100.00
55068;BME280;40965;52.368;9.712;2022-10-16T06:08:47;100591.06;;;11.86;100.00
55068;BME280;40965;52.368;9.712;2022-10-16T06:11:19;100599.75;;;11.91;100.00
55068;BME280;40965;52.368;9.712;2022-10-16T06:13:51;100603.25;;;11.90;100.00
55068;BME280;40965;52.368;9.712;2022-10-16T06:16:19;100597.97;;;11.92;100.00
55068;BME280;40965;52.368;9.712;2022-10-16T06:18:46;100599.69;;;11.95;100.00
55068;BME280;40965;52.368;9.712;2022-10-16T06:21:17;100603.97;;;12.03;100.00
55068;BME280;40965;52.368;9.712;2022-10-16T06:23:46;100603.00;;;12.09;100.00
55068;BME280;40965;52.368;9.712;2022-10-16T06:26:14;100622.13;;;12.16;100.00
55068;BME280;40965;52.368;9.712;2022-10-16T06:28:42;100624.69;;;12.19;100.00
55068;BME280;40965;52.368;9.712;2022-10-16T06:31:10;100631.63;;;12.23;100.00
55068;BME280;40965;52.368;9.712;2022-10-16T06:33:37;100637.75;;;12.23;100.00
55068;BME280;40965;52.368;9.712;2022-10-16T06:36:10;100625.50;;;12.22;100.00
55068;BME280;40965;52.368;9.712;2022-10-16T06:38:38;100618.56;;;12.20;100.00
55068;BME280;40965;52.368;9.712;2022-10-16T06:41:08;100622.88;;;12.22;100.00
55068;BME280;40965;52.368;9.712;2022-10-16T06:43:41;100627.31;;;12.19;100.00
55068;BME280;40965;52.368;9.712;2022-10-16T06:46:10;100629.16;;;12.14;100.00
55068;BME280;40965;52.368;9.712;2022-10-16T06:48:37;100641.44;;;12.12;100.00
55068;BME280;40965;52.368;9.712;2022-10-16T06:51:18;100643.13;;;12.16;100.00
55068;BME280;40965;52.368;9.712;2022-10-16T06:53:48;100652.59;;;12.24;100.00
55068;BME280;40965;52.368;9.712;2022-10-16T06:56:19;100656.81;;;12.35;100.00
55068;BME280;40965;52.368;9.712;2022-10-16T06:58:47;100649.47;;;12.55;100.00
55068;BME280;40965;52.368;9.712;2022-10-16T07:01:15;100644.44;;;12.91;100.00
55068;BME280;40965;52.368;9.712;2022-10-16T07:03:45;100651.06;;;13.56;100.00
55068;BME280;40965;52.368;9.712;2022-10-16T07:06:17;100648.75;;;13.82;100.00
55068;BME280;40965;52.368;9.712;2022-10-16T07:08:46;100645.47;;;14.11;100.00
55068;BME280;40965;52.368;9.712;2022-10-16T07:11:17;100646.47;;;14.43;100.00
55068;BME280;40965;52.368;9.712;2022-10-16T07:13:46;100655.56;;;14.66;100.00
55068;BME280;40965;52.368;9.712;2022-10-16T07:16:18;100657.41;;;14.61;100.00
55068;BME280;40965;52.368;9.712;2022-10-16T07:18:46;100671.88;;;14.44;100.00
55068;BME280;40965;52.368;9.712;2022-10-16T07:21:19;100680.41;;;14.18;100.00
55068;BME280;40965;52.368;9.712;2022-10-16T07:23:54;100682.63;;;13.99;100.00
55068;BME280;40965;52.368;9.712;2022-10-16T07:26:22;100685.41;;;13.89;100.00
55068;BME280;40965;52.368;9.712;2022-10-16T07:28:49;100680.28;;;13.85;100.00
55068;BME280;40965;52.368;9.712;2022-10-16T07:31:18;100687.28;;;13.84;100.00
55068;BME280;40965;52.368;9.712;2022-10-16T07:33:46;100691.66;;;13.85;100.00
55068;BME280;40965;52.368;9.712;2022-10-16T07:36:14;100694.19;;;13.90;100.00
55068;BME280;40965;52.368;9.712;2022-10-16T07:38:42;100700.19;;;13.97;100.00
55068;BME280;40965;52.368;9.712;2022-10-16T07:41:14;100699.97;;;14.06;100.00
55068;BME280;40965;52.368;9.712;2022-10-16T07:43:46;100692.59;;;14.22;99.13
55068;BME280;40965;52.368;9.712;2022-10-16T07:46:18;100710.59;;;14.41;96.76
55068;BME280;40965;52.368;9.712;2022-10-16T07:48:46;100722.53;;;14.55;96.36
55068;BME280;40965;52.368;9.712;2022-10-16T07:51:15;100716.22;;;14.63;95.32
55068;BME280;40965;52.368;9.712;2022-10-16T07:53:43;100715.22;;;14.68;95.07
55068;BME280;40965;52.368;9.712;2022-10-16T07:56:11;100722.06;;;14.76;93.29
55068;BME280;40965;52.368;9.712;2022-10-16T07:58:37;100725.38;;;14.84;92.33
55068;BME280;40965;52.368;9.712;2022-10-16T08:01:06;100725.13;;;14.93;91.89
55068;BME280;40965;52.368;9.712;2022-10-16T08:03:35;100725.69;;;15.06;90.95
55068;BME280;40965;52.368;9.712;2022-10-16T08:06:02;100730.63;;;15.18;88.78
55068;BME280;40965;52.368;9.712;2022-10-16T08:08:29;100731.19;;;15.30;87.60
55068;BME280;40965;52.368;9.712;2022-10-16T08:10:56;100744.03;;;15.42;86.93
55068;BME280;40965;52.368;9.712;2022-10-16T08:13:22;100744.50;;;15.58;86.95
55068;BME280;40965;52.368;9.712;2022-10-16T08:15:53;100749.34;;;15.72;86.40
55068;BME280;40965;52.368;9.712;2022-10-16T08:18:21;100752.66;;;15.80;85.47
55068;BME280;40965;52.368;9.712;2022-10-16T08:20:47;100749.25;;;15.77;83.63
55068;BME280;40965;52.368;9.712;2022-10-16T08:23:14;100746.69;;;15.74;83.61
55068;BME280;40965;52.368;9.712;2022-10-16T08:25:41;100760.19;;;15.63;84.14
55068;BME280;40965;52.368;9.712;2022-10-16T08:28:09;100764.06;;;15.49;84.96
55068;BME280;40965;52.368;9.712;2022-10-16T08:30:37;100760.81;;;15.39;85.24
55068;BME280;40965;52.368;9.712;2022-10-16T08:33:04;100763.00;;;15.24;86.79
55068;BME280;40965;52.368;9.712;2022-10-16T08:35:31;100773.72;;;15.17;86.69
55068;BME280;40965;52.368;9.712;2022-10-16T08:37:57;100766.78;;;15.13;86.46
55068;BME280;40965;52.368;9.712;2022-10-16T08:40:29;100761.50;;;15.13;86.56
55068;BME280;40965;52.368;9.712;2022-10-16T08:48:50;100776.94;;;15.29;84.81
55068;BME280;40965;52.368;9.712;2022-10-16T08:51:35;100773.56;;;15.24;85.41
55068;BME280;40965;52.368;9.712;2022-10-16T08:54:06;100778.81;;;15.24;85.84
55068;BME280;40965;52.368;9.712;2022-10-16T08:56:37;100776.13;;;15.27;85.15
55068;BME280;40965;52.368;9.712;2022-10-16T08:59:06;100784.94;;;15.26;85.60
55068;BME280;40965;52.368;9.712;2022-10-16T09:01:54;100785.59;;;15.34;84.69
55068;BME280;40965;52.368;9.712;2022-10-16T09:04:47;100783.59;;;15.42;84.13
55068;BME280;40965;52.368;9.712;2022-10-16T09:07:37;100785.53;;;15.37;84.12
55068;BME280;40965;52.368;9.712;2022-10-16T09:10:20;100786.34;;;15.39;84.55
55068;BME280;40965;52.368;9.712;2022-10-16T09:13:03;100794.91;;;15.47;83.26
55068;BME280;40965;52.368;9.712;2022-10-16T09:18:34;100792.75;;;15.62;82.12
55068;BME280;40965;52.368;9.712;2022-10-16T09:21:19;100803.28;;;15.63;82.20
55068;BME280;40965;52.368;9.712;2022-10-16T09:23:48;100804.97;;;15.66;81.45
55068;BME280;40965;52.368;9.712;2022-10-16T09:26:16;100809.22;;;15.71;81.50
55068;BME280;40965;52.368;9.712;2022-10-16T09:28:44;100815.16;;;15.78;81.65
55068;BME280;40965;52.368;9.712;2022-10-16T09:31:15;100812.31;;;15.87;80.89
55068;BME280;40965;52.368;9.712;2022-10-16T09:33:49;100823.31;;;16.02;79.93
55068;BME280;40965;52.368;9.712;2022-10-16T09:36:20;100823.06;;;16.11;79.12
55068;BME280;40965;52.368;9.712;2022-10-16T09:38:48;100821.06;;;16.19;78.09
55068;BME280;40965;52.368;9.712;2022-10-16T09:41:22;100813.16;;;16.19;78.27
55068;BME280;40965;52.368;9.712;2022-10-16T09:44:01;100813.00;;;16.24;78.02
55068;BME280;40965;52.368;9.712;2022-10-16T09:49:04;100827.59;;;16.37;76.77
55068;BME280;40965;52.368;9.712;2022-10-16T09:51:44;100831.81;;;16.43;76.50
55068;BME280;40965;52.368;9.712;2022-10-16T09:56:41;100837.34;;;16.64;75.11
55068;BME280;40965;52.368;9.712;2022-10-16T09:59:16;100840.56;;;16.74;74.20
55068;BME280;40965;52.368;9.712;2022-10-16T10:01:51;100843.56;;;16.91;73.15
55068;BME280;40965;52.368;9.712;2022-10-16T10:04:19;100846.56;;;17.07;72.06
55068;BME280;40965;52.368;9.712;2022-10-16T10:06:51;100842.81;;;17.14;70.97
55068;BME280;40965;52.368;9.712;2022-10-16T10:09:38;100851.03;;;17.32;70.11
55068;BME280;40965;52.368;9.712;2022-10-16T10:12:14;100857.56;;;17.48;69.87
55068;BME280;40965;52.368;9.712;2022-10-16T10:14:49;100846.09;;;17.48;65.74
55068;BME280;40965;52.368;9.712;2022-10-16T10:17:20;100856.41;;;17.56;67.67
55068;BME280;40965;52.368;9.712;2022-10-16T10:19:55;100862.25;;;17.65;67.70
55068;BME280;40965;52.368;9.712;2022-10-16T10:22:32;100865.88;;;17.63;66.85
55068;BME280;40965;52.368;9.712;2022-10-16T10:25:23;100857.59;;;17.47;67.06
55068;BME280;40965;52.368;9.712;2022-10-16T10:29:09;100861.13;;;17.20;66.92
55068;BME280;40965;52.368;9.712;2022-10-16T10:34:47;100873.31;;;16.98;67.37
55068;BME280;40965;52.368;9.712;2022-10-16T10:44:19;100879.78;;;17.95;65.19
55068;BME280;40965;52.368;9.712;2022-10-16T10:46:57;100888.34;;;18.27;63.63
55068;BME280;40965;52.368;9.712;2022-10-16T11:01:16;100887.47;;;17.50;63.11
55068;BME280;40965;52.368;9.712;2022-10-16T11:06:44;100884.75;;;17.52;63.95
55068;BME280;40965;52.368;9.712;2022-10-16T11:09:24;100890.94;;;17.52;64.23
55068;BME280;40965;52.368;9.712;2022-10-16T11:12:00;100897.47;;;17.67;64.00
55068;BME280;40965;52.368;9.712;2022-10-16T11:14:33;100893.69;;;17.75;62.96
55068;BME280;40965;52.368;9.712;2022-10-16T11:19:54;100903.34;;;18.26;61.05
55068;BME280;40965;52.368;9.712;2022-10-16T11:23:18;100906.88;;;18.50;60.32
55068;BME280;40965;52.368;9.712;2022-10-16T11:26:00;100908.09;;;18.88;59.23
55068;BME280;40965;52.368;9.712;2022-10-16T11:28:35;100904.75;;;19.06;58.21
55068;BME280;40965;52.368;9.712;2022-10-16T11:31:12;100904.97;;;19.22;57.32
55068;BME280;40965;52.368;9.712;2022-10-16T11:33:45;100906.22;;;19.13;58.28
55068;BME280;40965;52.368;9.712;2022-10-16T11:39:39;100912.19;;;18.96;58.44
55068;BME280;40965;52.368;9.712;2022-10-16T11:42:28;100912.44;;;18.90;59.16
55068;BME280;40965;52.368;9.712;2022-10-16T11:47:42;100914.19;;;18.67;60.01
55068;BME280;40965;52.368;9.712;2022-10-16T11:50:34;100924.31;;;18.56;61.10
55068;BME280;40965;52.368;9.712;2022-10-16T11:56:13;100913.63;;;18.59;60.25
55068;BME280;40965;52.368;9.712;2022-10-16T11:58:53;100917.06;;;18.61;59.58
55068;BME280;40965;52.368;9.712;2022-10-16T12:01:38;100919.56;;;18.66;58.88
55068;BME280;40965;52.368;9.712;2022-10-16T12:07:14;100932.91;;;18.63;59.12
55068;BME280;40965;52.368;9.712;2022-10-16T12:09:48;100936.50;;;18.62;58.75
55068;BME280;40965;52.368;9.712;2022-10-16T12:12:26;100936.78;;;18.54;59.23
55068;BME280;40965;52.368;9.712;2022-10-16T12:15:30;100931.38;;;18.57;59.48
55068;BME280;40965;52.368;9.712;2022-10-16T12:17:59;100929.78;;;18.75;58.49
55068;BME280;40965;52.368;9.712;2022-10-16T12:20:31;100937.66;;;19.02;57.32
55068;BME280;40965;52.368;9.712;2022-10-16T12:23:03;100935.59;;;19.09;56.76
55068;BME280;40965;52.368;9.712;2022-10-16T12:25:34;100949.25;;;18.99;56.96
55068;BME280;40965;52.368;9.712;2022-10-16T12:30:42;100940.47;;;18.74;57.21
55068;BME280;40965;52.368;9.712;2022-10-16T12:33:42;100939.19;;;18.60;56.21
55068;BME280;40965;52.368;9.712;2022-10-16T12:36:32;100935.84;;;18.31;57.59
55068;BME280;40965;52.368;9.712;2022-10-16T12:39:01;100936.53;;;18.37;57.42
55068;BME280;40965;52.368;9.712;2022-10-16T12:41:34;100952.50;;;18.59;56.65
55068;BME280;40965;52.368;9.712;2022-10-16T12:44:04;100951.44;;;18.64;57.01
55068;BME280;40965;52.368;9.712;2022-10-16T12:46:35;100950.63;;;18.62;57.10
55068;BME280;40965;52.368;9.712;2022-10-16T12:51:42;100955.56;;;18.72;56.11
55068;BME280;40965;52.368;9.712;2022-10-16T12:54:28;100960.00;;;18.71;56.29
55068;BME280;40965;52.368;9.712;2022-10-16T13:03:00;100965.13;;;18.76;55.53
55068;BME280;40965;52.368;9.712;2022-10-16T13:06:17;100970.78;;;18.66;56.00
55068;BME280;40965;52.368;9.712;2022-10-16T13:11:55;100984.09;;;18.65;56.17
55068;BME280;40965;52.368;9.712;2022-10-16T13:14:40;100968.75;;;18.73;54.84
55068;BME280;40965;52.368;9.712;2022-10-16T13:21:05;100992.34;;;18.81;53.95
55068;BME280;40965;52.368;9.712;2022-10-16T13:26:31;100987.16;;;19.01;53.62
55068;BME280;40965;52.368;9.712;2022-10-16T13:29:06;100986.31;;;19.01;53.78
55068;BME280;40965;52.368;9.712;2022-10-16T13:31:33;100997.97;;;18.97;54.04
55068;BME280;40965;52.368;9.712;2022-10-16T13:34:00;100994.00;;;19.96;51.70
55068;BME280;40965;52.368;9.712;2022-10-16T13:36:34;101001.78;;;20.61;50.28
55068;BME280;40965;52.368;9.712;2022-10-16T13:39:29;101005.66;;;21.12;49.01
55068;BME280;40965;52.368;9.712;2022-10-16T13:42:06;100999.25;;;21.53;48.28
55068;BME280;40965;52.368;9.712;2022-10-16T13:44:50;100995.25;;;20.68;48.75
55068;BME280;40965;52.368;9.712;2022-10-16T13:47:23;101001.00;;;21.35;47.42
55068;BME280;40965;52.368;9.712;2022-10-16T13:50:05;100998.94;;;22.65;44.15
55068;BME280;40965;52.368;9.712;2022-10-16T13:52:36;100997.84;;;23.79;43.01
55068;BME280;40965;52.368;9.712;2022-10-16T13:55:16;100984.28;;;24.72;39.78
55068;BME280;40965;52.368;9.712;2022-10-16T13:57:44;101004.91;;;25.26;38.89
55068;BME280;40965;52.368;9.712;2022-10-16T14:00:31;101004.16;;;23.78;40.89
55068;BME280;40965;52.368;9.712;2022-10-16T14:03:07;101013.00;;;22.84;42.55
55068;BME280;40965;52.368;9.712;2022-10-16T14:06:06;101011.19;;;21.27;46.19
55068;BME280;40965;52.368;9.712;2022-10-16T14:08:53;101007.38;;;21.13;46.89
55068;BME280;40965;52.368;9.712;2022-10-16T14:11:26;101009.91;;;20.78;47.38
55068;BME280;40965;52.368;9.712;2022-10-16T14:13:53;101024.69;;;20.03;49.49
55068;BME280;40965;52.368;9.712;2022-10-16T14:16:25;101035.19;;;19.63;50.84
55068;BME280;40965;52.368;9.712;2022-10-16T14:19:04;101036.78;;;19.45;51.74
55068;BME280;40965;52.368;9.712;2022-10-16T14:21:33;101040.66;;;19.37;52.23
55068;BME280;40965;52.368;9.712;2022-10-16T14:24:13;101045.44;;;19.05;53.51
55068;BME280;40965;52.368;9.712;2022-10-16T14:26:44;101046.28;;;18.81;54.43
55068;BME280;40965;52.368;9.712;2022-10-16T14:29:18;101044.41;;;18.60;55.13